Ash Flat, Arkansas
Current Conditions -  °F | °C
As of 6:15 PM on Saturday 20 Dec 2014 (Local Time) from KBVX Reporting Station
Overcast Overcast  
Wind Chill: 43°   Ceiling: 2800
Heat Index: 43°   Visibility: 5mi
Dew Point: 36°   Wind: 3mph
Humidity: 76%   Direction: 150°SSE
Pressure: 30.25"   Gusts: NA
Location:  36.22°N, 91.61°W
Report Text: KBVX 210015Z AUTO 15003KT 5SM OVC028 06/02 A3025 RMK AO1
Loading
Personal Weather Stations






























Interactive Weather Map New forecast layout! Learn more

10-Day Weather Forecast

Advertisements
Track Severe Weather on mobile